createdAt,value
2022-12-15T00:20:01.701Z,96685.87
2022-12-15T00:40:05.924Z,96704.19
2022-12-15T01:00:27.411Z,96727.06
2022-12-15T01:20:34.459Z,96746.13
2022-12-15T01:40:46.357Z,96756.03
2022-12-15T02:00:49.207Z,96778.16
2022-12-15T02:20:51.948Z,96778.91
2022-12-15T02:40:54.503Z,96805.59
2022-12-15T03:00:57.466Z,96824.69
2022-12-15T03:21:00.028Z,96848.34
2022-12-15T03:41:02.657Z,96859.06
2022-12-15T04:01:05.449Z,96885.38
2022-12-15T04:21:08.005Z,96898.34
2022-12-15T04:41:29.454Z,96927.75
2022-12-15T05:01:51.380Z,96944.53
2022-12-15T05:22:12.546Z,96973.94
2022-12-15T05:42:15.034Z,97006.69
2022-12-15T06:02:17.739Z,97057.94
2022-12-15T08:45:02.928Z,97336.97
2022-12-15T14:31:37.897Z,97517.28
2022-12-15T14:51:40.515Z,97551.12
2022-12-15T15:11:44.022Z,97576.69
2022-12-15T15:31:47.692Z,97591.25
2022-12-15T15:51:50.322Z,97596.19
2022-12-15T16:11:52.960Z,97612.31
2022-12-15T16:31:55.788Z,97569.28
2022-12-15T16:51:58.260Z,97540.19
2022-12-15T17:12:00.845Z,97573.28
2022-12-15T17:32:03.413Z,97591.81
2022-12-15T17:52:06.098Z,97592.94
2022-12-15T18:12:09.045Z,97556.91
2022-12-15T18:32:12.500Z,97569.94
2022-12-15T18:52:15.340Z,97578.34
2022-12-15T19:12:20.833Z,97603.69
2022-12-15T19:32:24.251Z,97591.13
2022-12-15T19:52:26.905Z,97565.75
2022-12-15T20:12:29.584Z,97554.06
2022-12-15T20:32:36.723Z,97561.16
2022-12-15T20:52:41.035Z,97557.47
2022-12-15T21:12:43.569Z,97533.94
2022-12-15T21:32:46.412Z,97519.56
2022-12-15T21:52:49.127Z,97485.78
2022-12-15T22:12:57.424Z,97494.25
2022-12-15T22:33:02.081Z,97460.09
2022-12-15T22:53:04.760Z,97476.75
2022-12-15T23:13:09.284Z,97446.75
2022-12-15T23:33:20.348Z,97419.25
2022-12-15T23:53:22.817Z,97386.63
